Decoded Metar for KTTA (SANFORD in NC, USA) (IATA:TTA) | Meteo·Mobile Aviation Weather
aviador You're here:

KTTA Decoded Metar

SANFORD in NC, USA
Report Time2019-06-18 14:20:00
UTC Time2019-06-18 14:40:15
Flight Rules vfr VFR
Wind210° at 05 kt
W.Decomp.*RWY 21: 5.0 kt HW 0.7 kt RCW
Visibility9999 m
Phenomena:N/A
Clouds:Scattered 028 Hf
Expected CloudBase > 2,400 ft AGL from Temp-Dew spread
CeilingNone
Temp28°C (ISA +13)
Dew Point22°C (70% RH)
Heat Index30.7°C
QNH1017 hPa
Density Alt2,011 ft
Elevation246 ft
Report Wrong Elevation
Raw Report
METAR KTTA 181420Z AUTO 21005KT 10SM SCT028 28/22 A3002 RMK AO2 T02810221=

Extra information for KTTA:More info

Metar Taf Metar & Taf Last 4 Metars F.Rules Stats Wind Profile Meteogram Temp Stats Airport Information Weather charts Add Link Nearby VenuesMetar ALERT Operation Metar Decoded Social comments

AIRNAV info for KTTA